ESSD Airport Information

Runway Information
Runway 14 Length 7579 ft width 148 ft
Elevation 503 ft Threshold 0 ft Heading 133
Runway 32 Length 7579 ft Width 148 ft
Elevation 493 ft Threshold 0 ft Heading 313
Airport Frequencies
Type TWR Name TWR Frequency 127.3 MHZ
Airport Navaids
Type VOR-DME Name Borlange Frequency 117600 KHZ
Airport Weather Information & NOTAM
ADDS - METARS form results

(2212 UTC 26 February 2021)
Data provider http://aviationweather.gov/metar/data/
 
METAR text: ESSD 262150Z AUTO 31014KT 9999 NCD 03/M03 Q1023
Conditions at: ESSD (BORLANGE (SWE-AF, SE) observed 2150 UTC 26 February 2021
Temperature: 3.0°C (37°F)
Dewpoint: -3.0°C (27°F) [RH = 65%]
Pressure (altimeter): 30.21 inches Hg (1023.0 mb)
Winds: from the NW (310 degrees) at 16 MPH (14 knots; 7.2 m/s)
Visibility: 6 or more miles (10+ km)
Ceiling: at least 12,000 feet AGL
Clouds: sky clear below 12,000 feet AGL
Weather: no significant weather observed at this time

METAR text: ESSD 262120Z AUTO 31013KT 9999 NCD 03/M02 Q1022
Conditions at: ESSD (BORLANGE (SWE-AF, SE) observed 2120 UTC 26 February 2021
Temperature: 3.0°C (37°F)
Dewpoint: -2.0°C (28°F) [RH = 70%]
Pressure (altimeter): 30.18 inches Hg (1022.0 mb)
Winds: from the NW (310 degrees) at 15 MPH (13 knots; 6.7 m/s)
Visibility: 6 or more miles (10+ km)
Ceiling: at least 12,000 feet AGL
Clouds: sky clear below 12,000 feet AGL
Weather: no significant weather observed at this time

Forecast for: ESSD (BORLANGE (SWE-AF, SE)
Text: TAF ESSD 261130Z 2612/2615 32015G25KT CAVOK
Forecast period: 1200 to 1500 UTC 26 February 2021
Forecast type: FROM: standard forecast or significant change
Winds: from the NW (320 degrees) at 17 MPH (15 knots; 7.7 m/s)
gusting to 29 MPH (25 knots; 12.9 m/s)
Visibility: 6 or more miles (10+ km)
Ceiling: unknown
Clouds: missing
Weather: NSW  (no significant weather)